sensor_id;sensor_type;location;lat;lon;timestamp;pressure;altitude;pressure_sealevel;temperature;humidity
59391;BME280;53405;57.012;40.984;2022-09-09T00:01:08;100705.97;;;6.99;82.98
59391;BME280;53405;57.012;40.984;2022-09-09T00:04:34;100698.00;;;6.91;83.63
59391;BME280;53405;57.012;40.984;2022-09-09T00:07:48;100697.59;;;6.96;82.67
59391;BME280;53405;57.012;40.984;2022-09-09T00:10:38;100713.44;;;6.94;83.17
59391;BME280;53405;57.012;40.984;2022-09-09T00:13:53;100709.84;;;7.05;82.37
59391;BME280;53405;57.012;40.984;2022-09-09T00:16:45;100693.16;;;6.96;81.67
59391;BME280;53405;57.012;40.984;2022-09-09T00:19:48;100707.91;;;6.87;83.10
59391;BME280;53405;57.012;40.984;2022-09-09T00:22:41;100711.91;;;6.92;82.34
59391;BME280;53405;57.012;40.984;2022-09-09T00:25:38;100716.44;;;6.90;82.51
59391;BME280;53405;57.012;40.984;2022-09-09T00:28:28;100718.13;;;6.91;82.54
59391;BME280;53405;57.012;40.984;2022-09-09T00:31:28;100729.81;;;6.86;82.77
59391;BME280;53405;57.012;40.984;2022-09-09T00:34:24;100731.06;;;6.92;82.54
59391;BME280;53405;57.012;40.984;2022-09-09T00:37:13;100733.34;;;6.66;83.87
59391;BME280;53405;57.012;40.984;2022-09-09T00:40:29;100735.16;;;6.65;83.46
59391;BME280;53405;57.012;40.984;2022-09-09T00:43:28;100741.50;;;6.82;82.57
59391;BME280;53405;57.012;40.984;2022-09-09T00:56:16;100743.19;;;6.83;81.94
59391;BME280;53405;57.012;40.984;2022-09-09T01:02:38;100757.06;;;6.64;83.32
59391;BME280;53405;57.012;40.984;2022-09-09T01:11:22;100755.69;;;6.70;82.81
59391;BME280;53405;57.012;40.984;2022-09-09T01:14:22;100749.63;;;6.69;82.84
59391;BME280;53405;57.012;40.984;2022-09-09T01:17:16;100758.03;;;6.73;82.92
59391;BME280;53405;57.012;40.984;2022-09-09T01:20:37;100764.09;;;6.74;82.80
59391;BME280;53405;57.012;40.984;2022-09-09T01:27:02;100771.84;;;6.44;84.34
59391;BME280;53405;57.012;40.984;2022-09-09T01:29:52;100777.13;;;6.54;83.90
59391;BME280;53405;57.012;40.984;2022-09-09T01:32:54;100777.13;;;6.54;83.76
59391;BME280;53405;57.012;40.984;2022-09-09T01:35:57;100776.69;;;6.49;84.63
59391;BME280;53405;57.012;40.984;2022-09-09T01:38:53;100770.69;;;6.68;82.55
59391;BME280;53405;57.012;40.984;2022-09-09T01:41:41;100771.94;;;6.64;82.50
59391;BME280;53405;57.012;40.984;2022-09-09T01:44:32;100774.69;;;6.62;82.82
59391;BME280;53405;57.012;40.984;2022-09-09T01:47:21;100776.16;;;6.55;83.58
59391;BME280;53405;57.012;40.984;2022-09-09T01:50:21;100774.09;;;6.59;83.52
59391;BME280;53405;57.012;40.984;2022-09-09T01:53:09;100779.41;;;6.68;82.99
59391;BME280;53405;57.012;40.984;2022-09-09T01:56:14;100781.44;;;6.65;82.71
59391;BME280;53405;57.012;40.984;2022-09-09T02:08:26;100793.22;;;6.49;83.39
59391;BME280;53405;57.012;40.984;2022-09-09T02:11:27;100796.28;;;6.55;82.88
59391;BME280;53405;57.012;40.984;2022-09-09T02:14:40;100801.59;;;6.43;83.84
59391;BME280;53405;57.012;40.984;2022-09-09T02:17:33;100807.28;;;6.48;83.66
59391;BME280;53405;57.012;40.984;2022-09-09T02:20:47;100807.56;;;6.55;83.37
59391;BME280;53405;57.012;40.984;2022-09-09T02:23:35;100811.13;;;6.54;83.19
59391;BME280;53405;57.012;40.984;2022-09-09T02:26:27;100803.13;;;6.46;83.28
59391;BME280;53405;57.012;40.984;2022-09-09T02:29:26;100813.19;;;6.50;83.43
59391;BME280;53405;57.012;40.984;2022-09-09T02:32:18;100814.81;;;6.42;83.63
59391;BME280;53405;57.012;40.984;2022-09-09T02:35:11;100820.19;;;6.40;83.76
59391;BME280;53405;57.012;40.984;2022-09-09T02:38:03;100820.84;;;6.32;84.62
59391;BME280;53405;57.012;40.984;2022-09-09T02:40:52;100811.06;;;6.35;83.77
59391;BME280;53405;57.012;40.984;2022-09-09T02:43:40;100824.88;;;6.46;83.61
59391;BME280;53405;57.012;40.984;2022-09-09T02:53:16;100825.09;;;6.33;83.41
59391;BME280;53405;57.012;40.984;2022-09-09T02:56:14;100844.81;;;6.38;83.52
59391;BME280;53405;57.012;40.984;2022-09-09T02:59:04;100831.69;;;6.28;83.86
59391;BME280;53405;57.012;40.984;2022-09-09T03:01:55;100852.72;;;6.47;83.38
59391;BME280;53405;57.012;40.984;2022-09-09T03:04:44;100844.84;;;6.47;82.99
59391;BME280;53405;57.012;40.984;2022-09-09T03:07:33;100845.19;;;6.33;83.80
59391;BME280;53405;57.012;40.984;2022-09-09T03:10:21;100831.31;;;6.32;83.42
59391;BME280;53405;57.012;40.984;2022-09-09T03:13:09;100846.91;;;6.44;82.61
59391;BME280;53405;57.012;40.984;2022-09-09T03:15:59;100858.06;;;6.46;82.53
59391;BME280;53405;57.012;40.984;2022-09-09T03:18:50;100854.50;;;6.47;82.92
59391;BME280;53405;57.012;40.984;2022-09-09T03:21:39;100849.69;;;6.52;82.28
59391;BME280;53405;57.012;40.984;2022-09-09T03:24:27;100850.66;;;6.51;82.18
59391;BME280;53405;57.012;40.984;2022-09-09T03:27:15;100857.69;;;6.50;82.33
59391;BME280;53405;57.012;40.984;2022-09-09T03:30:04;100864.84;;;6.48;82.57
59391;BME280;53405;57.012;40.984;2022-09-09T03:32:52;100855.66;;;6.33;82.87
59391;BME280;53405;57.012;40.984;2022-09-09T03:35:45;100850.72;;;6.40;82.53
59391;BME280;53405;57.012;40.984;2022-09-09T03:38:37;100857.13;;;6.47;82.48
59391;BME280;53405;57.012;40.984;2022-09-09T03:41:25;100856.88;;;6.50;82.93
59391;BME280;53405;57.012;40.984;2022-09-09T03:44:13;100845.97;;;6.45;82.57
59391;BME280;53405;57.012;40.984;2022-09-09T03:47:02;100854.88;;;6.42;82.24
59391;BME280;53405;57.012;40.984;2022-09-09T03:49:51;100876.38;;;6.46;82.27
59391;BME280;53405;57.012;40.984;2022-09-09T03:52:39;100880.38;;;6.40;82.19
59391;BME280;53405;57.012;40.984;2022-09-09T03:55:36;100885.97;;;6.36;82.76
59391;BME280;53405;57.012;40.984;2022-09-09T03:58:24;100878.38;;;6.32;82.58
59391;BME280;53405;57.012;40.984;2022-09-09T04:01:18;100883.81;;;6.20;83.83
59391;BME280;53405;57.012;40.984;2022-09-09T04:04:07;100866.72;;;6.15;83.36
59391;BME280;53405;57.012;40.984;2022-09-09T04:06:56;100887.50;;;6.38;83.11
59391;BME280;53405;57.012;40.984;2022-09-09T04:09:43;100888.91;;;6.42;83.12
59391;BME280;53405;57.012;40.984;2022-09-09T04:12:33;100889.78;;;6.53;82.46
59391;BME280;53405;57.012;40.984;2022-09-09T04:15:22;100890.38;;;6.35;83.36
59391;BME280;53405;57.012;40.984;2022-09-09T04:18:10;100902.03;;;6.52;82.47
59391;BME280;53405;57.012;40.984;2022-09-09T04:20:59;100906.69;;;6.27;83.75
59391;BME280;53405;57.012;40.984;2022-09-09T04:23:51;100883.09;;;6.18;83.42
59391;BME280;53405;57.012;40.984;2022-09-09T04:26:40;100903.19;;;6.38;83.12
59391;BME280;53405;57.012;40.984;2022-09-09T04:29:28;100902.81;;;6.43;82.96
59391;BME280;53405;57.012;40.984;2022-09-09T04:32:16;100909.75;;;6.54;82.71
59391;BME280;53405;57.012;40.984;2022-09-09T04:35:05;100907.91;;;6.44;83.18
59391;BME280;53405;57.012;40.984;2022-09-09T04:37:54;100910.16;;;6.49;82.94
59391;BME280;53405;57.012;40.984;2022-09-09T04:40:49;100895.47;;;6.37;83.31
59391;BME280;53405;57.012;40.984;2022-09-09T04:43:42;100908.34;;;6.49;82.47
59391;BME280;53405;57.012;40.984;2022-09-09T04:46:31;100904.31;;;6.66;81.47
59391;BME280;53405;57.012;40.984;2022-09-09T04:49:23;100926.78;;;6.69;81.20
59391;BME280;53405;57.012;40.984;2022-09-09T04:52:29;100919.19;;;6.66;82.04
59391;BME280;53405;57.012;40.984;2022-09-09T04:55:17;100924.59;;;6.74;82.42
59391;BME280;53405;57.012;40.984;2022-09-09T04:58:06;100921.34;;;6.82;81.46
59391;BME280;53405;57.012;40.984;2022-09-09T05:00:54;100920.66;;;6.80;81.77
59391;BME280;53405;57.012;40.984;2022-09-09T05:04:02;100926.91;;;6.67;82.52
59391;BME280;53405;57.012;40.984;2022-09-09T05:07:14;100913.56;;;6.71;81.88
59391;BME280;53405;57.012;40.984;2022-09-09T05:10:03;100935.00;;;6.85;81.71
59391;BME280;53405;57.012;40.984;2022-09-09T05:12:56;100931.19;;;6.99;81.25
59391;BME280;53405;57.012;40.984;2022-09-09T05:15:57;100926.22;;;6.96;80.17
59391;BME280;53405;57.012;40.984;2022-09-09T05:18:48;100936.97;;;6.93;82.38
59391;BME280;53405;57.012;40.984;2022-09-09T05:21:38;100906.16;;;6.76;82.29
59391;BME280;53405;57.012;40.984;2022-09-09T05:24:26;100925.00;;;7.00;80.57
59391;BME280;53405;57.012;40.984;2022-09-09T05:27:18;100947.97;;;7.18;80.95
59391;BME280;53405;57.012;40.984;2022-09-09T05:30:09;100949.91;;;7.16;80.45
59391;BME280;53405;57.012;40.984;2022-09-09T05:32:57;100956.13;;;7.24;80.72
59391;BME280;53405;57.012;40.984;2022-09-09T05:35:45;100957.00;;;7.35;78.56
59391;BME280;53405;57.012;40.984;2022-09-09T05:38:34;100954.09;;;7.38;78.58
59391;BME280;53405;57.012;40.984;2022-09-09T05:41:24;100964.41;;;7.30;79.15
59391;BME280;53405;57.012;40.984;2022-09-09T05:44:14;100956.72;;;7.38;79.01
59391;BME280;53405;57.012;40.984;2022-09-09T05:47:03;100937.66;;;7.36;78.73
59391;BME280;53405;57.012;40.984;2022-09-09T05:49:51;100957.03;;;7.64;78.65
59391;BME280;53405;57.012;40.984;2022-09-09T05:52:39;100964.09;;;7.73;78.18
59391;BME280;53405;57.012;40.984;2022-09-09T05:55:27;100958.47;;;7.78;76.38
59391;BME280;53405;57.012;40.984;2022-09-09T05:58:16;100958.59;;;7.67;76.16
59391;BME280;53405;57.012;40.984;2022-09-09T06:01:12;100963.69;;;7.68;75.87
59391;BME280;53405;57.012;40.984;2022-09-09T06:04:03;100979.84;;;7.73;76.37
59391;BME280;53405;57.012;40.984;2022-09-09T06:06:52;100975.16;;;7.77;76.48
59391;BME280;53405;57.012;40.984;2022-09-09T06:09:41;100973.09;;;7.90;76.48
59391;BME280;53405;57.012;40.984;2022-09-09T06:12:29;100972.84;;;8.03;75.88
59391;BME280;53405;57.012;40.984;2022-09-09T06:15:17;100958.72;;;7.94;75.01
59391;BME280;53405;57.012;40.984;2022-09-09T06:18:05;100970.63;;;8.08;75.38
59391;BME280;53405;57.012;40.984;2022-09-09T06:21:03;100976.13;;;8.15;75.12
59391;BME280;53405;57.012;40.984;2022-09-09T06:23:51;100972.44;;;8.37;74.48
59391;BME280;53405;57.012;40.984;2022-09-09T06:26:41;100973.25;;;8.28;71.92
59391;BME280;53405;57.012;40.984;2022-09-09T06:29:32;100984.19;;;8.13;74.45
59391;BME280;53405;57.012;40.984;2022-09-09T06:32:21;100963.44;;;8.30;73.62
59391;BME280;53405;57.012;40.984;2022-09-09T06:35:09;100977.13;;;8.63;74.13
59391;BME280;53405;57.012;40.984;2022-09-09T06:37:59;100988.41;;;8.83;72.08
59391;BME280;53405;57.012;40.984;2022-09-09T06:40:54;100982.88;;;8.76;72.23
59391;BME280;53405;57.012;40.984;2022-09-09T06:43:43;100973.94;;;8.69;72.13
59391;BME280;53405;57.012;40.984;2022-09-09T06:46:36;100967.03;;;8.58;71.96
59391;BME280;53405;57.012;40.984;2022-09-09T06:49:30;100981.38;;;8.64;72.58
59391;BME280;53405;57.012;40.984;2022-09-09T06:52:24;100987.88;;;8.70;71.62
59391;BME280;53405;57.012;40.984;2022-09-09T06:55:19;100990.59;;;8.88;71.42
59391;BME280;53405;57.012;40.984;2022-09-09T06:58:08;100970.38;;;8.98;70.19
59391;BME280;53405;57.012;40.984;2022-09-09T07:01:07;100990.22;;;9.20;70.32
59391;BME280;53405;57.012;40.984;2022-09-09T07:03:59;100986.44;;;9.32;70.03
59391;BME280;53405;57.012;40.984;2022-09-09T07:06:47;100995.22;;;9.51;68.99
59391;BME280;53405;57.012;40.984;2022-09-09T07:09:39;100988.09;;;9.61;68.42
59391;BME280;53405;57.012;40.984;2022-09-09T07:12:32;101001.38;;;9.87;66.80
59391;BME280;53405;57.012;40.984;2022-09-09T07:15:21;100996.25;;;9.86;66.02
59391;BME280;53405;57.012;40.984;2022-09-09T07:18:15;100984.22;;;9.83;64.04
59391;BME280;53405;57.012;40.984;2022-09-09T07:21:06;101001.09;;;9.63;63.92
59391;BME280;53405;57.012;40.984;2022-09-09T07:23:56;100996.31;;;9.48;64.75
59391;BME280;53405;57.012;40.984;2022-09-09T07:26:44;101000.34;;;9.52;64.26
59391;BME280;53405;57.012;40.984;2022-09-09T07:29:36;100998.56;;;9.43;65.07
59391;BME280;53405;57.012;40.984;2022-09-09T07:32:25;101011.91;;;9.32;68.17
59391;BME280;53405;57.012;40.984;2022-09-09T07:35:19;101015.34;;;9.32;68.13
59391;BME280;53405;57.012;40.984;2022-09-09T07:38:07;101013.50;;;9.43;68.14
59391;BME280;53405;57.012;40.984;2022-09-09T07:41:31;101005.75;;;9.41;67.05
59391;BME280;53405;57.012;40.984;2022-09-09T07:48:11;101018.13;;;9.31;67.68
59391;BME280;53405;57.012;40.984;2022-09-09T07:51:06;101026.97;;;9.30;68.19
59391;BME280;53405;57.012;40.984;2022-09-09T07:53:57;101016.03;;;9.34;67.00
59391;BME280;53405;57.012;40.984;2022-09-09T07:56:51;101019.66;;;9.23;68.66
59391;BME280;53405;57.012;40.984;2022-09-09T07:59:43;101017.19;;;9.22;70.68
59391;BME280;53405;57.012;40.984;2022-09-09T08:02:30;101015.81;;;9.55;66.87
59391;BME280;53405;57.012;40.984;2022-09-09T08:05:19;101032.00;;;9.79;65.41
59391;BME280;53405;57.012;40.984;2022-09-09T08:08:10;101035.22;;;10.00;63.23
59391;BME280;53405;57.012;40.984;2022-09-09T08:11:13;101033.88;;;10.14;62.09
59391;BME280;53405;57.012;40.984;2022-09-09T08:14:06;101032.59;;;10.00;63.57
59391;BME280;53405;57.012;40.984;2022-09-09T08:16:55;101032.06;;;9.97;64.01
59391;BME280;53405;57.012;40.984;2022-09-09T08:19:46;101032.34;;;10.11;63.22
59391;BME280;53405;57.012;40.984;2022-09-09T08:22:40;101014.00;;;10.20;61.12
59391;BME280;53405;57.012;40.984;2022-09-09T08:25:33;101031.84;;;10.08;64.44
59391;BME280;53405;57.012;40.984;2022-09-09T08:28:25;101024.09;;;10.24;63.70
59391;BME280;53405;57.012;40.984;2022-09-09T08:31:18;101026.81;;;10.51;60.90
59391;BME280;53405;57.012;40.984;2022-09-09T08:34:18;101025.00;;;10.51;59.79
59391;BME280;53405;57.012;40.984;2022-09-09T08:37:15;101026.66;;;10.34;59.07
59391;BME280;53405;57.012;40.984;2022-09-09T08:40:04;101037.84;;;10.18;62.17
59391;BME280;53405;57.012;40.984;2022-09-09T08:43:00;101003.13;;;9.97;61.79
59391;BME280;53405;57.012;40.984;2022-09-09T08:46:00;101031.94;;;10.34;61.29
59391;BME280;53405;57.012;40.984;2022-09-09T08:48:55;101043.16;;;10.54;60.98
59391;BME280;53405;57.012;40.984;2022-09-09T08:51:48;101044.25;;;10.70;60.03
59391;BME280;53405;57.012;40.984;2022-09-09T08:54:37;101036.63;;;10.84;59.27
59391;BME280;53405;57.012;40.984;2022-09-09T08:57:38;101048.88;;;10.68;57.52
59391;BME280;53405;57.012;40.984;2022-09-09T09:00:36;101045.19;;;10.42;59.26
59391;BME280;53405;57.012;40.984;2022-09-09T09:07:03;101054.72;;;10.25;61.19
59391;BME280;53405;57.012;40.984;2022-09-09T09:10:16;101038.59;;;10.10;59.72
59391;BME280;53405;57.012;40.984;2022-09-09T09:17:02;101045.31;;;11.29;56.57
59391;BME280;53405;57.012;40.984;2022-09-09T09:19:53;101044.75;;;11.52;54.58
59391;BME280;53405;57.012;40.984;2022-09-09T09:22:49;101042.81;;;11.28;57.42
59391;BME280;53405;57.012;40.984;2022-09-09T09:25:40;101047.34;;;11.44;56.51
59391;BME280;53405;57.012;40.984;2022-09-09T09:28:33;101049.53;;;11.48;55.05
59391;BME280;53405;57.012;40.984;2022-09-09T09:31:29;101041.00;;;11.28;55.87
59391;BME280;53405;57.012;40.984;2022-09-09T09:34:16;101054.06;;;11.38;56.38
59391;BME280;53405;57.012;40.984;2022-09-09T09:37:16;101044.50;;;11.02;56.87
59391;BME280;53405;57.012;40.984;2022-09-09T09:40:13;101037.97;;;11.15;55.81
59391;BME280;53405;57.012;40.984;2022-09-09T09:43:01;101019.03;;;10.85;58.27
59391;BME280;53405;57.012;40.984;2022-09-09T09:45:54;101038.81;;;11.15;55.82
59391;BME280;53405;57.012;40.984;2022-09-09T09:49:04;101040.31;;;11.18;55.41
59391;BME280;53405;57.012;40.984;2022-09-09T09:52:00;101042.28;;;11.58;53.66
59391;BME280;53405;57.012;40.984;2022-09-09T09:54:49;101033.97;;;11.71;52.53
59391;BME280;53405;57.012;40.984;2022-09-09T09:57:40;101044.00;;;11.76;53.94
59391;BME280;53405;57.012;40.984;2022-09-09T10:00:31;101037.28;;;11.82;51.90
59391;BME280;53405;57.012;40.984;2022-09-09T10:03:30;101042.66;;;11.29;54.74
59391;BME280;53405;57.012;40.984;2022-09-09T10:06:33;101041.25;;;11.09;55.83
59391;BME280;53405;57.012;40.984;2022-09-09T10:09:25;101043.75;;;11.18;54.31
59391;BME280;53405;57.012;40.984;2022-09-09T10:18:59;101040.53;;;11.75;54.76
59391;BME280;53405;57.012;40.984;2022-09-09T10:22:25;101036.69;;;11.96;53.23
59391;BME280;53405;57.012;40.984;2022-09-09T10:25:45;101040.19;;;12.13;51.71
59391;BME280;53405;57.012;40.984;2022-09-09T10:38:47;101047.41;;;12.03;51.85
59391;BME280;53405;57.012;40.984;2022-09-09T10:57:02;101035.03;;;13.02;49.81
59391;BME280;53405;57.012;40.984;2022-09-09T10:59:54;101036.59;;;13.84;45.92
59391;BME280;53405;57.012;40.984;2022-09-09T11:02:44;101013.34;;;13.23;47.22
59391;BME280;53405;57.012;40.984;2022-09-09T11:05:43;101024.44;;;13.66;47.18
59391;BME280;53405;57.012;40.984;2022-09-09T11:08:35;101038.31;;;13.37;48.51
59391;BME280;53405;57.012;40.984;2022-09-09T11:11:30;101026.31;;;12.77;49.14
59391;BME280;53405;57.012;40.984;2022-09-09T11:17:14;101033.69;;;13.70;47.90
59391;BME280;53405;57.012;40.984;2022-09-09T11:20:05;101029.97;;;15.55;43.13
59391;BME280;53405;57.012;40.984;2022-09-09T11:23:24;101037.53;;;15.88;40.49
59391;BME280;53405;57.012;40.984;2022-09-09T11:26:39;101035.19;;;14.89;41.91
59391;BME280;53405;57.012;40.984;2022-09-09T11:38:51;101027.13;;;13.10;46.27
59391;BME280;53405;57.012;40.984;2022-09-09T11:41:39;101033.75;;;12.73;47.35
59391;BME280;53405;57.012;40.984;2022-09-09T11:44:30;101036.13;;;13.32;46.23
59391;BME280;53405;57.012;40.984;2022-09-09T11:53:22;101041.13;;;16.38;39.80
59391;BME280;53405;57.012;40.984;2022-09-09T11:56:12;101039.09;;;16.90;38.00
59391;BME280;53405;57.012;40.984;2022-09-09T11:59:03;101029.84;;;16.86;38.49
59391;BME280;53405;57.012;40.984;2022-09-09T12:02:00;101036.13;;;16.57;37.81
59391;BME280;53405;57.012;40.984;2022-09-09T12:04:50;101040.69;;;16.63;39.00
59391;BME280;53405;57.012;40.984;2022-09-09T12:07:54;101034.00;;;16.02;38.97
59391;BME280;53405;57.012;40.984;2022-09-09T12:10:56;101036.00;;;14.74;42.70
59391;BME280;53405;57.012;40.984;2022-09-09T12:13:53;101037.03;;;14.19;46.04
59391;BME280;53405;57.012;40.984;2022-09-09T12:16:40;101030.19;;;13.78;45.30
59391;BME280;53405;57.012;40.984;2022-09-09T12:19:28;101036.78;;;13.43;45.96
59391;BME280;53405;57.012;40.984;2022-09-09T12:32:18;101022.63;;;15.57;41.76
59391;BME280;53405;57.012;40.984;2022-09-09T12:35:20;101033.56;;;15.99;40.84
59391;BME280;53405;57.012;40.984;2022-09-09T12:38:17;101032.88;;;15.75;42.96
59391;BME280;53405;57.012;40.984;2022-09-09T12:41:23;101033.19;;;15.06;43.24
59391;BME280;53405;57.012;40.984;2022-09-09T12:44:19;101018.56;;;14.95;43.67
59391;BME280;53405;57.012;40.984;2022-09-09T12:47:06;101024.75;;;14.49;44.47
59391;BME280;53405;57.012;40.984;2022-09-09T12:49:57;101021.31;;;14.17;43.69
59391;BME280;53405;57.012;40.984;2022-09-09T12:52:45;101027.03;;;13.74;45.51
59391;BME280;53405;57.012;40.984;2022-09-09T12:55:38;101025.19;;;13.52;45.71
59391;BME280;53405;57.012;40.984;2022-09-09T12:58:27;101023.97;;;13.15;47.98
59391;BME280;53405;57.012;40.984;2022-09-09T13:01:28;100995.88;;;13.06;47.17
59391;BME280;53405;57.012;40.984;2022-09-09T13:04:20;100994.63;;;12.85;46.81
59391;BME280;53405;57.012;40.984;2022-09-09T13:07:11;101025.00;;;12.81;49.47
59391;BME280;53405;57.012;40.984;2022-09-09T13:09:59;101008.50;;;12.71;49.05
59391;BME280;53405;57.012;40.984;2022-09-09T13:12:47;101031.47;;;12.62;49.98
59391;BME280;53405;57.012;40.984;2022-09-09T13:15:35;101016.09;;;12.57;47.84
59391;BME280;53405;57.012;40.984;2022-09-09T13:18:26;101036.25;;;12.34;49.04
59391;BME280;53405;57.012;40.984;2022-09-09T13:21:14;101036.72;;;12.21;49.41
59391;BME280;53405;57.012;40.984;2022-09-09T13:24:04;101032.09;;;12.15;49.67
59391;BME280;53405;57.012;40.984;2022-09-09T13:26:59;101033.75;;;12.16;50.39
59391;BME280;53405;57.012;40.984;2022-09-09T13:29:53;101035.06;;;12.20;50.66
59391;BME280;53405;57.012;40.984;2022-09-09T13:32:44;101036.09;;;12.27;51.76
59391;BME280;53405;57.012;40.984;2022-09-09T13:35:32;101040.34;;;12.20;51.98
59391;BME280;53405;57.012;40.984;2022-09-09T13:38:20;101033.94;;;12.22;51.17
59391;BME280;53405;57.012;40.984;2022-09-09T13:41:19;101032.97;;;12.32;50.65
59391;BME280;53405;57.012;40.984;2022-09-09T13:44:28;101033.13;;;12.30;52.61
59391;BME280;53405;57.012;40.984;2022-09-09T13:47:35;101021.88;;;12.53;51.03
59391;BME280;53405;57.012;40.984;2022-09-09T13:50:28;101007.03;;;12.19;52.32
59391;BME280;53405;57.012;40.984;2022-09-09T13:53:16;101011.34;;;12.36;51.13
59391;BME280;53405;57.012;40.984;2022-09-09T13:56:05;101021.38;;;12.33;51.13
59391;BME280;53405;57.012;40.984;2022-09-09T13:58:52;101001.41;;;12.22;50.80
59391;BME280;53405;57.012;40.984;2022-09-09T14:01:40;101009.00;;;12.17;51.16
59391;BME280;53405;57.012;40.984;2022-09-09T14:04:28;101023.84;;;12.18;52.34
59391;BME280;53405;57.012;40.984;2022-09-09T14:07:17;101002.69;;;12.01;52.29
59391;BME280;53405;57.012;40.984;2022-09-09T14:10:06;101008.34;;;12.23;51.00
59391;BME280;53405;57.012;40.984;2022-09-09T14:12:54;101017.59;;;12.35;50.60
59391;BME280;53405;57.012;40.984;2022-09-09T14:15:41;101016.25;;;12.31;50.37
59391;BME280;53405;57.012;40.984;2022-09-09T14:18:29;101020.41;;;12.17;52.16
59391;BME280;53405;57.012;40.984;2022-09-09T14:21:17;101009.34;;;12.30;50.42
59391;BME280;53405;57.012;40.984;2022-09-09T14:24:30;101015.78;;;12.27;50.76
59391;BME280;53405;57.012;40.984;2022-09-09T14:27:18;101019.06;;;12.29;50.72
59391;BME280;53405;57.012;40.984;2022-09-09T14:30:07;101011.31;;;12.20;50.46
59391;BME280;53405;57.012;40.984;2022-09-09T14:32:54;101031.78;;;12.26;49.73
59391;BME280;53405;57.012;40.984;2022-09-09T14:35:42;101025.34;;;12.20;50.47
59391;BME280;53405;57.012;40.984;2022-09-09T14:38:34;101023.84;;;12.09;50.99
59391;BME280;53405;57.012;40.984;2022-09-09T14:41:26;101035.38;;;12.00;51.35
59391;BME280;53405;57.012;40.984;2022-09-09T14:44:13;101032.25;;;11.97;50.83
59391;BME280;53405;57.012;40.984;2022-09-09T14:47:01;101033.84;;;11.89;51.12
59391;BME280;53405;57.012;40.984;2022-09-09T14:49:49;101040.22;;;11.79;52.93
59391;BME280;53405;57.012;40.984;2022-09-09T14:52:37;101035.59;;;11.81;51.94
59391;BME280;53405;57.012;40.984;2022-09-09T14:55:25;101032.44;;;11.61;53.56
59391;BME280;53405;57.012;40.984;2022-09-09T14:58:15;101031.31;;;11.71;52.98
59391;BME280;53405;57.012;40.984;2022-09-09T15:01:05;101035.56;;;11.64;52.82
59391;BME280;53405;57.012;40.984;2022-09-09T15:03:54;101036.03;;;11.60;53.77
59391;BME280;53405;57.012;40.984;2022-09-09T15:06:43;101038.03;;;11.57;54.83
59391;BME280;53405;57.012;40.984;2022-09-09T15:09:34;101036.66;;;11.53;54.66
59391;BME280;53405;57.012;40.984;2022-09-09T15:12:24;101037.66;;;11.52;54.68
59391;BME280;53405;57.012;40.984;2022-09-09T15:15:11;101037.63;;;11.44;56.01
59391;BME280;53405;57.012;40.984;2022-09-09T15:17:59;101038.09;;;11.39;55.28
59391;BME280;53405;57.012;40.984;2022-09-09T15:20:47;101032.72;;;11.15;57.08
59391;BME280;53405;57.012;40.984;2022-09-09T15:23:35;101023.59;;;11.09;56.70
59391;BME280;53405;57.012;40.984;2022-09-09T15:26:23;101048.00;;;11.11;57.09
59391;BME280;53405;57.012;40.984;2022-09-09T15:29:11;101044.28;;;10.96;58.66
59391;BME280;53405;57.012;40.984;2022-09-09T15:31:59;101052.56;;;11.01;57.77
59391;BME280;53405;57.012;40.984;2022-09-09T15:34:46;101054.38;;;11.00;57.88
59391;BME280;53405;57.012;40.984;2022-09-09T15:37:34;101040.09;;;10.85;58.41
59391;BME280;53405;57.012;40.984;2022-09-09T15:40:22;101048.50;;;10.89;58.41
59391;BME280;53405;57.012;40.984;2022-09-09T15:43:09;101049.88;;;10.75;59.69
59391;BME280;53405;57.012;40.984;2022-09-09T15:46:09;101054.78;;;10.70;59.80
59391;BME280;53405;57.012;40.984;2022-09-09T15:49:19;101053.59;;;10.64;59.52
59391;BME280;53405;57.012;40.984;2022-09-09T15:52:10;101050.81;;;10.47;60.18
59391;BME280;53405;57.012;40.984;2022-09-09T15:54:58;101050.00;;;10.47;61.19
59391;BME280;53405;57.012;40.984;2022-09-09T15:57:48;101055.13;;;10.48;60.88
59391;BME280;53405;57.012;40.984;2022-09-09T16:00:36;101062.31;;;10.46;61.57
59391;BME280;53405;57.012;40.984;2022-09-09T16:03:24;101068.19;;;10.40;62.57
59391;BME280;53405;57.012;40.984;2022-09-09T16:06:14;101062.78;;;10.42;60.82
59391;BME280;53405;57.012;40.984;2022-09-09T16:09:04;101053.16;;;10.33;61.44
59391;BME280;53405;57.012;40.984;2022-09-09T16:11:57;101071.38;;;10.44;62.94
59391;BME280;53405;57.012;40.984;2022-09-09T16:14:45;101070.00;;;10.40;63.13
59391;BME280;53405;57.012;40.984;2022-09-09T16:17:33;101071.84;;;10.29;63.36
59391;BME280;53405;57.012;40.984;2022-09-09T16:20:25;101064.56;;;10.23;64.02
59391;BME280;53405;57.012;40.984;2022-09-09T16:23:13;101075.41;;;10.20;64.33
59391;BME280;53405;57.012;40.984;2022-09-09T16:26:01;101077.34;;;10.18;64.53
59391;BME280;53405;57.012;40.984;2022-09-09T16:28:51;101078.91;;;10.11;65.62
59391;BME280;53405;57.012;40.984;2022-09-09T16:31:41;101077.84;;;10.04;65.14
59391;BME280;53405;57.012;40.984;2022-09-09T16:34:29;101084.28;;;9.91;65.46
59391;BME280;53405;57.012;40.984;2022-09-09T16:37:17;101082.38;;;9.84;66.24
59391;BME280;53405;57.012;40.984;2022-09-09T16:40:05;101099.28;;;9.81;66.75
59391;BME280;53405;57.012;40.984;2022-09-09T16:42:53;101075.84;;;9.60;66.92
59391;BME280;53405;57.012;40.984;2022-09-09T16:45:45;101092.41;;;9.70;66.45
59391;BME280;53405;57.012;40.984;2022-09-09T16:48:40;101094.38;;;9.68;67.03